sensor_id;sensor_type;location;lat;lon;timestamp;P1;durP1;ratioP1;P2;durP2;ratioP2
7745;SDS011;3917;42.748;23.278;2022-09-12T00:00:40;7.07;;;6.38;;
7745;SDS011;3917;42.748;23.278;2022-09-12T00:03:07;10.38;;;7.47;;
7745;SDS011;3917;42.748;23.278;2022-09-12T00:05:34;7.50;;;6.63;;
7745;SDS011;3917;42.748;23.278;2022-09-12T00:08:08;8.75;;;6.45;;
7745;SDS011;3917;42.748;23.278;2022-09-12T00:10:36;8.32;;;6.75;;
7745;SDS011;3917;42.748;23.278;2022-09-12T00:13:04;7.28;;;6.53;;
7745;SDS011;3917;42.748;23.278;2022-09-12T00:15:31;7.32;;;6.63;;
7745;SDS011;3917;42.748;23.278;2022-09-12T00:17:57;6.80;;;6.13;;
7745;SDS011;3917;42.748;23.278;2022-09-12T00:20:24;10.18;;;6.32;;
7745;SDS011;3917;42.748;23.278;2022-09-12T00:22:51;7.35;;;6.65;;
7745;SDS011;3917;42.748;23.278;2022-09-12T00:25:19;6.93;;;6.22;;
7745;SDS011;3917;42.748;23.278;2022-09-12T00:27:46;8.35;;;6.75;;
7745;SDS011;3917;42.748;23.278;2022-09-12T00:30:12;8.75;;;6.60;;
7745;SDS011;3917;42.748;23.278;2022-09-12T00:32:39;7.20;;;6.50;;
7745;SDS011;3917;42.748;23.278;2022-09-12T00:35:06;7.30;;;6.57;;
7745;SDS011;3917;42.748;23.278;2022-09-12T00:37:33;9.40;;;6.47;;
7745;SDS011;3917;42.748;23.278;2022-09-12T00:40:00;7.20;;;6.50;;
7745;SDS011;3917;42.748;23.278;2022-09-12T00:42:28;7.75;;;6.60;;
7745;SDS011;3917;42.748;23.278;2022-09-12T00:44:55;8.20;;;6.25;;
7745;SDS011;3917;42.748;23.278;2022-09-12T00:47:23;7.88;;;6.95;;
7745;SDS011;3917;42.748;23.278;2022-09-12T00:49:54;9.57;;;6.72;;
7745;SDS011;3917;42.748;23.278;2022-09-12T00:52:27;7.20;;;6.50;;
7745;SDS011;3917;42.748;23.278;2022-09-12T00:54:59;7.68;;;6.47;;
7745;SDS011;3917;42.748;23.278;2022-09-12T00:57:33;7.50;;;6.70;;
7745;SDS011;3917;42.748;23.278;2022-09-12T01:00:06;9.13;;;6.43;;
7745;SDS011;3917;42.748;23.278;2022-09-12T01:02:38;8.48;;;6.22;;
7745;SDS011;3917;42.748;23.278;2022-09-12T01:05:06;6.63;;;6.03;;
7745;SDS011;3917;42.748;23.278;2022-09-12T01:07:34;6.88;;;6.15;;
7745;SDS011;3917;42.748;23.278;2022-09-12T01:10:01;6.35;;;5.75;;
7745;SDS011;3917;42.748;23.278;2022-09-12T01:12:28;8.00;;;6.05;;
7745;SDS011;3917;42.748;23.278;2022-09-12T01:14:58;8.32;;;6.28;;
7745;SDS011;3917;42.748;23.278;2022-09-12T01:17:26;5.72;;;5.22;;
7745;SDS011;3917;42.748;23.278;2022-09-12T01:23:07;6.63;;;5.28;;
7745;SDS011;3917;42.748;23.278;2022-09-12T01:26:08;5.32;;;4.80;;
7745;SDS011;3917;42.748;23.278;2022-09-12T01:28:53;7.05;;;4.72;;
7745;SDS011;3917;42.748;23.278;2022-09-12T01:31:30;4.82;;;4.43;;
7745;SDS011;3917;42.748;23.278;2022-09-12T01:34:06;6.10;;;4.85;;
7745;SDS011;3917;42.748;23.278;2022-09-12T01:36:42;5.05;;;4.28;;
7745;SDS011;3917;42.748;23.278;2022-09-12T01:39:20;5.75;;;4.55;;
7745;SDS011;3917;42.748;23.278;2022-09-12T01:41:56;5.20;;;4.70;;
7745;SDS011;3917;42.748;23.278;2022-09-12T01:44:35;4.57;;;3.88;;
7745;SDS011;3917;42.748;23.278;2022-09-12T01:47:12;4.63;;;4.22;;
7745;SDS011;3917;42.748;23.278;2022-09-12T01:49:46;4.43;;;3.95;;
7745;SDS011;3917;42.748;23.278;2022-09-12T01:52:21;4.60;;;4.20;;
7745;SDS011;3917;42.748;23.278;2022-09-12T01:54:53;7.18;;;4.18;;
7745;SDS011;3917;42.748;23.278;2022-09-12T01:57:28;5.00;;;3.92;;
7745;SDS011;3917;42.748;23.278;2022-09-12T02:00:03;5.10;;;4.68;;
7745;SDS011;3917;42.748;23.278;2022-09-12T02:02:34;5.03;;;4.63;;
7745;SDS011;3917;42.748;23.278;2022-09-12T02:05:04;8.35;;;4.13;;
7745;SDS011;3917;42.748;23.278;2022-09-12T02:07:36;4.90;;;4.40;;
7745;SDS011;3917;42.748;23.278;2022-09-12T02:10:08;5.35;;;4.22;;
7745;SDS011;3917;42.748;23.278;2022-09-12T02:12:40;5.10;;;4.65;;
7745;SDS011;3917;42.748;23.278;2022-09-12T02:15:10;5.40;;;4.82;;
7745;SDS011;3917;42.748;23.278;2022-09-12T02:17:41;6.28;;;5.68;;
7745;SDS011;3917;42.748;23.278;2022-09-12T02:20:11;6.38;;;5.78;;
7745;SDS011;3917;42.748;23.278;2022-09-12T02:22:41;5.32;;;4.80;;
7745;SDS011;3917;42.748;23.278;2022-09-12T02:25:11;7.25;;;5.53;;
7745;SDS011;3917;42.748;23.278;2022-09-12T02:27:43;5.75;;;5.15;;
7745;SDS011;3917;42.748;23.278;2022-09-12T02:30:12;6.43;;;5.30;;
7745;SDS011;3917;42.748;23.278;2022-09-12T02:32:44;5.07;;;4.57;;
7745;SDS011;3917;42.748;23.278;2022-09-12T02:35:20;5.63;;;5.13;;
7745;SDS011;3917;42.748;23.278;2022-09-12T02:37:56;5.00;;;4.60;;
7745;SDS011;3917;42.748;23.278;2022-09-12T02:40:27;5.55;;;5.05;;
7745;SDS011;3917;42.748;23.278;2022-09-12T02:42:55;5.55;;;5.03;;
7745;SDS011;3917;42.748;23.278;2022-09-12T02:45:22;5.53;;;5.03;;
7745;SDS011;3917;42.748;23.278;2022-09-12T02:47:52;7.25;;;6.03;;
7745;SDS011;3917;42.748;23.278;2022-09-12T02:50:22;5.75;;;5.18;;
7745;SDS011;3917;42.748;23.278;2022-09-12T02:52:49;5.20;;;4.72;;
7745;SDS011;3917;42.748;23.278;2022-09-12T02:55:18;6.63;;;5.05;;
7745;SDS011;3917;42.748;23.278;2022-09-12T02:57:45;5.68;;;5.10;;
7745;SDS011;3917;42.748;23.278;2022-09-12T03:00:12;6.93;;;5.60;;
7745;SDS011;3917;42.748;23.278;2022-09-12T03:02:44;7.43;;;6.25;;
7745;SDS011;3917;42.748;23.278;2022-09-12T03:05:26;11.98;;;5.43;;
7745;SDS011;3917;42.748;23.278;2022-09-12T03:08:11;7.75;;;5.75;;
7745;SDS011;3917;42.748;23.278;2022-09-12T03:13:36;7.75;;;6.18;;
7745;SDS011;3917;42.748;23.278;2022-09-12T03:16:11;7.63;;;5.53;;
7745;SDS011;3917;42.748;23.278;2022-09-12T03:18:49;6.13;;;5.50;;
7745;SDS011;3917;42.748;23.278;2022-09-12T03:21:24;6.25;;;5.65;;
7745;SDS011;3917;42.748;23.278;2022-09-12T03:23:59;6.45;;;5.75;;
7745;SDS011;3917;42.748;23.278;2022-09-12T03:26:35;7.80;;;5.85;;
7745;SDS011;3917;42.748;23.278;2022-09-12T03:29:08;7.63;;;6.00;;
7745;SDS011;3917;42.748;23.278;2022-09-12T03:31:37;7.78;;;6.55;;
7745;SDS011;3917;42.748;23.278;2022-09-12T03:34:15;8.35;;;6.20;;
7745;SDS011;3917;42.748;23.278;2022-09-12T03:36:42;8.50;;;6.78;;
7745;SDS011;3917;42.748;23.278;2022-09-12T03:39:09;7.63;;;6.43;;
7745;SDS011;3917;42.748;23.278;2022-09-12T03:41:36;9.57;;;6.60;;
7745;SDS011;3917;42.748;23.278;2022-09-12T03:44:03;8.77;;;6.97;;
7745;SDS011;3917;42.748;23.278;2022-09-12T03:46:29;8.00;;;7.20;;
7745;SDS011;3917;42.748;23.278;2022-09-12T03:48:56;7.32;;;6.43;;
7745;SDS011;3917;42.748;23.278;2022-09-12T03:51:25;7.63;;;6.60;;
7745;SDS011;3917;42.748;23.278;2022-09-12T03:53:51;7.53;;;6.70;;
7745;SDS011;3917;42.748;23.278;2022-09-12T03:56:18;8.73;;;6.20;;
7745;SDS011;3917;42.748;23.278;2022-09-12T03:58:45;9.65;;;6.90;;
7745;SDS011;3917;42.748;23.278;2022-09-12T04:01:13;9.15;;;6.15;;
7745;SDS011;3917;42.748;23.278;2022-09-12T04:03:42;9.00;;;6.63;;
7745;SDS011;3917;42.748;23.278;2022-09-12T04:06:10;7.53;;;6.65;;
7745;SDS011;3917;42.748;23.278;2022-09-12T04:08:41;7.72;;;6.65;;
7745;SDS011;3917;42.748;23.278;2022-09-12T04:11:09;9.50;;;7.07;;
7745;SDS011;3917;42.748;23.278;2022-09-12T04:13:37;7.07;;;6.07;;
7745;SDS011;3917;42.748;23.278;2022-09-12T04:16:05;11.88;;;7.43;;
7745;SDS011;3917;42.748;23.278;2022-09-12T04:18:33;7.72;;;6.28;;
7745;SDS011;3917;42.748;23.278;2022-09-12T04:21:02;7.80;;;6.55;;
7745;SDS011;3917;42.748;23.278;2022-09-12T04:23:29;7.70;;;6.82;;
7745;SDS011;3917;42.748;23.278;2022-09-12T04:25:58;8.20;;;6.35;;
7745;SDS011;3917;42.748;23.278;2022-09-12T04:28:27;7.15;;;6.30;;
7745;SDS011;3917;42.748;23.278;2022-09-12T04:30:54;6.40;;;5.60;;
7745;SDS011;3917;42.748;23.278;2022-09-12T04:33:21;6.93;;;6.20;;
7745;SDS011;3917;42.748;23.278;2022-09-12T04:35:48;4.93;;;4.43;;
7745;SDS011;3917;42.748;23.278;2022-09-12T04:38:15;4.03;;;3.72;;
7745;SDS011;3917;42.748;23.278;2022-09-12T04:40:42;4.25;;;3.83;;
7745;SDS011;3917;42.748;23.278;2022-09-12T04:43:10;3.67;;;3.30;;
7745;SDS011;3917;42.748;23.278;2022-09-12T04:45:37;3.58;;;3.28;;
7745;SDS011;3917;42.748;23.278;2022-09-12T04:48:03;5.13;;;4.30;;
7745;SDS011;3917;42.748;23.278;2022-09-12T04:50:30;3.95;;;3.65;;
7745;SDS011;3917;42.748;23.278;2022-09-12T04:53:00;3.40;;;3.15;;
7745;SDS011;3917;42.748;23.278;2022-09-12T04:55:27;3.45;;;3.15;;
7745;SDS011;3917;42.748;23.278;2022-09-12T04:57:53;3.95;;;3.60;;
7745;SDS011;3917;42.748;23.278;2022-09-12T05:00:22;4.13;;;3.53;;
7745;SDS011;3917;42.748;23.278;2022-09-12T05:02:49;4.20;;;3.85;;
7745;SDS011;3917;42.748;23.278;2022-09-12T05:05:15;4.55;;;4.20;;
7745;SDS011;3917;42.748;23.278;2022-09-12T05:07:42;5.40;;;4.70;;
7745;SDS011;3917;42.748;23.278;2022-09-12T05:10:09;5.55;;;5.03;;
7745;SDS011;3917;42.748;23.278;2022-09-12T05:12:38;4.88;;;4.38;;
7745;SDS011;3917;42.748;23.278;2022-09-12T05:15:06;7.18;;;5.20;;
7745;SDS011;3917;42.748;23.278;2022-09-12T05:17:37;5.38;;;4.88;;
7745;SDS011;3917;42.748;23.278;2022-09-12T05:20:04;6.63;;;5.95;;
7745;SDS011;3917;42.748;23.278;2022-09-12T05:22:33;7.55;;;6.00;;
7745;SDS011;3917;42.748;23.278;2022-09-12T05:25:00;4.75;;;4.35;;
7745;SDS011;3917;42.748;23.278;2022-09-12T05:27:27;4.68;;;4.22;;
7745;SDS011;3917;42.748;23.278;2022-09-12T05:29:53;5.00;;;3.90;;
7745;SDS011;3917;42.748;23.278;2022-09-12T05:32:20;4.40;;;3.95;;
7745;SDS011;3917;42.748;23.278;2022-09-12T05:34:48;3.95;;;3.20;;
7745;SDS011;3917;42.748;23.278;2022-09-12T05:37:15;3.85;;;3.47;;
7745;SDS011;3917;42.748;23.278;2022-09-12T05:39:42;3.83;;;3.53;;
7745;SDS011;3917;42.748;23.278;2022-09-12T05:42:08;3.53;;;3.22;;
7745;SDS011;3917;42.748;23.278;2022-09-12T05:44:36;5.13;;;3.58;;
7745;SDS011;3917;42.748;23.278;2022-09-12T05:47:03;3.83;;;3.53;;
7745;SDS011;3917;42.748;23.278;2022-09-12T05:49:30;3.30;;;3.10;;
7745;SDS011;3917;42.748;23.278;2022-09-12T05:51:58;3.20;;;2.90;;
7745;SDS011;3917;42.748;23.278;2022-09-12T05:54:24;4.57;;;3.20;;
7745;SDS011;3917;42.748;23.278;2022-09-12T05:56:52;3.15;;;2.95;;
7745;SDS011;3917;42.748;23.278;2022-09-12T05:59:19;3.72;;;3.03;;
7745;SDS011;3917;42.748;23.278;2022-09-12T06:01:48;2.30;;;2.20;;
7745;SDS011;3917;42.748;23.278;2022-09-12T06:04:17;2.75;;;2.60;;
7745;SDS011;3917;42.748;23.278;2022-09-12T06:06:44;2.90;;;2.63;;
7745;SDS011;3917;42.748;23.278;2022-09-12T06:09:17;2.38;;;2.25;;
7745;SDS011;3917;42.748;23.278;2022-09-12T06:11:45;2.80;;;2.60;;
7745;SDS011;3917;42.748;23.278;2022-09-12T06:14:14;3.35;;;3.10;;
7745;SDS011;3917;42.748;23.278;2022-09-12T06:16:42;3.40;;;3.20;;
7745;SDS011;3917;42.748;23.278;2022-09-12T06:19:11;3.45;;;3.15;;
7745;SDS011;3917;42.748;23.278;2022-09-12T06:21:40;4.50;;;3.03;;
7745;SDS011;3917;42.748;23.278;2022-09-12T06:24:07;3.55;;;3.28;;
7745;SDS011;3917;42.748;23.278;2022-09-12T06:26:35;3.15;;;2.92;;
7745;SDS011;3917;42.748;23.278;2022-09-12T06:29:02;2.83;;;2.63;;
7745;SDS011;3917;42.748;23.278;2022-09-12T06:31:30;2.80;;;2.67;;
7745;SDS011;3917;42.748;23.278;2022-09-12T06:33:59;2.80;;;2.60;;
7745;SDS011;3917;42.748;23.278;2022-09-12T06:36:28;2.92;;;2.72;;
7745;SDS011;3917;42.748;23.278;2022-09-12T06:38:56;4.80;;;3.20;;
7745;SDS011;3917;42.748;23.278;2022-09-12T06:41:25;2.80;;;2.53;;
7745;SDS011;3917;42.748;23.278;2022-09-12T06:43:54;3.83;;;3.53;;
7745;SDS011;3917;42.748;23.278;2022-09-12T06:46:21;3.03;;;2.83;;
7745;SDS011;3917;42.748;23.278;2022-09-12T06:48:48;3.35;;;3.15;;
7745;SDS011;3917;42.748;23.278;2022-09-12T06:51:27;3.50;;;3.20;;
7745;SDS011;3917;42.748;23.278;2022-09-12T06:53:54;3.95;;;3.65;;
7745;SDS011;3917;42.748;23.278;2022-09-12T06:56:23;3.92;;;3.63;;
7745;SDS011;3917;42.748;23.278;2022-09-12T06:58:51;2.90;;;2.28;;
7745;SDS011;3917;42.748;23.278;2022-09-12T07:01:21;2.75;;;2.60;;
7745;SDS011;3917;42.748;23.278;2022-09-12T07:03:49;2.45;;;2.35;;
7745;SDS011;3917;42.748;23.278;2022-09-12T07:06:18;2.28;;;2.17;;
7745;SDS011;3917;42.748;23.278;2022-09-12T07:08:46;2.35;;;2.05;;
7745;SDS011;3917;42.748;23.278;2022-09-12T07:11:14;2.40;;;2.30;;
7745;SDS011;3917;42.748;23.278;2022-09-12T07:13:43;3.47;;;2.50;;
7745;SDS011;3917;42.748;23.278;2022-09-12T07:16:11;3.70;;;2.30;;
7745;SDS011;3917;42.748;23.278;2022-09-12T07:18:39;1.95;;;1.85;;
7745;SDS011;3917;42.748;23.278;2022-09-12T07:21:07;2.28;;;2.08;;
7745;SDS011;3917;42.748;23.278;2022-09-12T07:23:36;2.55;;;2.33;;
7745;SDS011;3917;42.748;23.278;2022-09-12T07:26:04;2.35;;;2.25;;
7745;SDS011;3917;42.748;23.278;2022-09-12T07:28:32;2.50;;;2.30;;
7745;SDS011;3917;42.748;23.278;2022-09-12T07:31:03;2.80;;;2.55;;
7745;SDS011;3917;42.748;23.278;2022-09-12T07:33:33;2.30;;;2.20;;
7745;SDS011;3917;42.748;23.278;2022-09-12T07:36:02;2.78;;;2.58;;
7745;SDS011;3917;42.748;23.278;2022-09-12T07:38:30;2.67;;;2.58;;
7745;SDS011;3917;42.748;23.278;2022-09-12T07:40:57;2.40;;;2.30;;
7745;SDS011;3917;42.748;23.278;2022-09-12T07:43:25;1.80;;;1.70;;
7745;SDS011;3917;42.748;23.278;2022-09-12T07:45:56;2.83;;;2.20;;
7745;SDS011;3917;42.748;23.278;2022-09-12T07:48:23;2.35;;;2.17;;
7745;SDS011;3917;42.748;23.278;2022-09-12T07:50:56;2.65;;;2.55;;
7745;SDS011;3917;42.748;23.278;2022-09-12T07:53:26;5.60;;;2.25;;
7745;SDS011;3917;42.748;23.278;2022-09-12T07:55:59;2.30;;;2.20;;
7745;SDS011;3917;42.748;23.278;2022-09-12T07:58:27;2.10;;;2.00;;
7745;SDS011;3917;42.748;23.278;2022-09-12T08:01:00;2.28;;;2.17;;
7745;SDS011;3917;42.748;23.278;2022-09-12T08:03:33;2.33;;;2.10;;
7745;SDS011;3917;42.748;23.278;2022-09-12T08:06:04;4.88;;;2.00;;
7745;SDS011;3917;42.748;23.278;2022-09-12T08:08:33;2.25;;;2.10;;
7745;SDS011;3917;42.748;23.278;2022-09-12T08:11:05;2.03;;;1.92;;
7745;SDS011;3917;42.748;23.278;2022-09-12T08:13:34;1.92;;;1.83;;
7745;SDS011;3917;42.748;23.278;2022-09-12T08:16:04;1.90;;;1.80;;
7745;SDS011;3917;42.748;23.278;2022-09-12T08:18:34;1.70;;;1.60;;
7745;SDS011;3917;42.748;23.278;2022-09-12T08:21:02;1.67;;;1.58;;
7745;SDS011;3917;42.748;23.278;2022-09-12T08:23:30;1.52;;;1.50;;
7745;SDS011;3917;42.748;23.278;2022-09-12T08:26:00;1.60;;;1.50;;
7745;SDS011;3917;42.748;23.278;2022-09-12T08:28:28;1.40;;;1.30;;
7745;SDS011;3917;42.748;23.278;2022-09-12T08:30:59;1.80;;;1.70;;
7745;SDS011;3917;42.748;23.278;2022-09-12T08:33:26;1.98;;;1.80;;
7745;SDS011;3917;42.748;23.278;2022-09-12T08:36:01;1.85;;;1.75;;
7745;SDS011;3917;42.748;23.278;2022-09-12T08:38:29;1.98;;;1.60;;
7745;SDS011;3917;42.748;23.278;2022-09-12T08:41:02;1.73;;;1.63;;
7745;SDS011;3917;42.748;23.278;2022-09-12T08:43:42;2.05;;;1.90;;
7745;SDS011;3917;42.748;23.278;2022-09-12T08:46:19;1.80;;;1.70;;
7745;SDS011;3917;42.748;23.278;2022-09-12T08:48:51;1.70;;;1.60;;
7745;SDS011;3917;42.748;23.278;2022-09-12T08:51:20;2.88;;;1.60;;
7745;SDS011;3917;42.748;23.278;2022-09-12T08:53:48;1.75;;;1.70;;
7745;SDS011;3917;42.748;23.278;2022-09-12T08:56:21;2.88;;;2.30;;
7745;SDS011;3917;42.748;23.278;2022-09-12T08:58:51;1.67;;;1.67;;
7745;SDS011;3917;42.748;23.278;2022-09-12T09:01:21;1.80;;;1.70;;
7745;SDS011;3917;42.748;23.278;2022-09-12T09:04:01;1.95;;;1.85;;
7745;SDS011;3917;42.748;23.278;2022-09-12T09:06:54;2.10;;;2.00;;
7745;SDS011;3917;42.748;23.278;2022-09-12T09:09:34;2.20;;;2.10;;
7745;SDS011;3917;42.748;23.278;2022-09-12T09:12:14;2.53;;;2.33;;
7745;SDS011;3917;42.748;23.278;2022-09-12T09:14:54;1.95;;;1.85;;
7745;SDS011;3917;42.748;23.278;2022-09-12T09:17:33;2.30;;;2.10;;
7745;SDS011;3917;42.748;23.278;2022-09-12T09:20:05;3.17;;;1.90;;
7745;SDS011;3917;42.748;23.278;2022-09-12T09:22:41;1.80;;;1.70;;
7745;SDS011;3917;42.748;23.278;2022-09-12T09:25:15;2.13;;;2.03;;
7745;SDS011;3917;42.748;23.278;2022-09-12T09:27:49;2.35;;;2.20;;
7745;SDS011;3917;42.748;23.278;2022-09-12T09:30:22;1.98;;;1.88;;
7745;SDS011;3917;42.748;23.278;2022-09-12T09:32:49;2.15;;;2.05;;
7745;SDS011;3917;42.748;23.278;2022-09-12T09:35:25;2.75;;;1.80;;
7745;SDS011;3917;42.748;23.278;2022-09-12T09:38:00;2.33;;;2.22;;
7745;SDS011;3917;42.748;23.278;2022-09-12T09:40:44;2.92;;;2.38;;
7745;SDS011;3917;42.748;23.278;2022-09-12T09:43:22;2.00;;;1.90;;
7745;SDS011;3917;42.748;23.278;2022-09-12T09:45:53;2.10;;;2.00;;
7745;SDS011;3917;42.748;23.278;2022-09-12T09:48:24;1.88;;;1.77;;
7745;SDS011;3917;42.748;23.278;2022-09-12T09:50:56;2.13;;;2.03;;
7745;SDS011;3917;42.748;23.278;2022-09-12T09:53:31;2.28;;;2.08;;
7745;SDS011;3917;42.748;23.278;2022-09-12T09:56:05;1.90;;;1.80;;
7745;SDS011;3917;42.748;23.278;2022-09-12T09:58:37;4.88;;;1.90;;
7745;SDS011;3917;42.748;23.278;2022-09-12T10:01:11;1.45;;;1.45;;
7745;SDS011;3917;42.748;23.278;2022-09-12T10:03:56;1.90;;;1.80;;
7745;SDS011;3917;42.748;23.278;2022-09-12T10:06:30;1.88;;;1.77;;
7745;SDS011;3917;42.748;23.278;2022-09-12T10:09:18;1.50;;;1.50;;
7745;SDS011;3917;42.748;23.278;2022-09-12T10:11:48;2.13;;;2.03;;
7745;SDS011;3917;42.748;23.278;2022-09-12T10:14:27;2.38;;;1.98;;
7745;SDS011;3917;42.748;23.278;2022-09-12T10:17:01;6.53;;;2.47;;
7745;SDS011;3917;42.748;23.278;2022-09-12T10:19:33;2.80;;;2.60;;
7745;SDS011;3917;42.748;23.278;2022-09-12T10:22:01;2.45;;;2.35;;
7745;SDS011;3917;42.748;23.278;2022-09-12T10:24:31;2.78;;;2.60;;
7745;SDS011;3917;42.748;23.278;2022-09-12T10:27:06;3.00;;;2.80;;
7745;SDS011;3917;42.748;23.278;2022-09-12T10:29:44;2.35;;;2.25;;
7745;SDS011;3917;42.748;23.278;2022-09-12T10:32:18;2.38;;;2.28;;
7745;SDS011;3917;42.748;23.278;2022-09-12T10:34:53;2.20;;;2.10;;
7745;SDS011;3917;42.748;23.278;2022-09-12T10:37:25;2.60;;;2.50;;
7745;SDS011;3917;42.748;23.278;2022-09-12T10:39:56;2.30;;;2.20;;
7745;SDS011;3917;42.748;23.278;2022-09-12T10:42:46;2.42;;;2.33;;
7745;SDS011;3917;42.748;23.278;2022-09-12T10:45:19;2.78;;;2.67;;
7745;SDS011;3917;42.748;23.278;2022-09-12T10:47:51;2.13;;;2.03;;
7745;SDS011;3917;42.748;23.278;2022-09-12T10:50:23;2.90;;;2.70;;
7745;SDS011;3917;42.748;23.278;2022-09-12T10:53:12;2.90;;;2.70;;
7745;SDS011;3917;42.748;23.278;2022-09-12T10:55:44;2.95;;;2.75;;
7745;SDS011;3917;42.748;23.278;2022-09-12T10:58:27;3.10;;;2.90;;
7745;SDS011;3917;42.748;23.278;2022-09-12T11:01:11;3.10;;;2.90;;
7745;SDS011;3917;42.748;23.278;2022-09-12T11:03:50;2.95;;;2.85;;
7745;SDS011;3917;42.748;23.278;2022-09-12T11:06:32;3.25;;;3.05;;
7745;SDS011;3917;42.748;23.278;2022-09-12T11:09:09;2.70;;;2.60;;
7745;SDS011;3917;42.748;23.278;2022-09-12T11:14:24;2.30;;;2.20;;
7745;SDS011;3917;42.748;23.278;2022-09-12T11:17:01;2.30;;;2.20;;
7745;SDS011;3917;42.748;23.278;2022-09-12T11:19:44;3.28;;;3.00;;
7745;SDS011;3917;42.748;23.278;2022-09-12T11:22:35;2.45;;;2.33;;
7745;SDS011;3917;42.748;23.278;2022-09-12T11:25:24;2.90;;;2.70;;
7745;SDS011;3917;42.748;23.278;2022-09-12T11:28:01;2.05;;;1.95;;
7745;SDS011;3917;42.748;23.278;2022-09-12T11:30:40;2.40;;;2.30;;
7745;SDS011;3917;42.748;23.278;2022-09-12T11:33:23;2.40;;;2.30;;
7745;SDS011;3917;42.748;23.278;2022-09-12T11:36:04;2.50;;;2.40;;
7745;SDS011;3917;42.748;23.278;2022-09-12T11:38:50;2.67;;;2.50;;
7745;SDS011;3917;42.748;23.278;2022-09-12T11:41:23;2.22;;;2.10;;
7745;SDS011;3917;42.748;23.278;2022-09-12T11:43:54;2.30;;;2.20;;
7745;SDS011;3917;42.748;23.278;2022-09-12T11:46:26;3.28;;;2.63;;
7745;SDS011;3917;42.748;23.278;2022-09-12T11:49:01;2.58;;;2.38;;
7745;SDS011;3917;42.748;23.278;2022-09-12T11:51:40;2.58;;;2.38;;
7745;SDS011;3917;42.748;23.278;2022-09-12T11:54:16;1.97;;;1.87;;
7745;SDS011;3917;42.748;23.278;2022-09-12T11:56:48;1.98;;;1.70;;
7745;SDS011;3917;42.748;23.278;2022-09-12T11:59:25;1.80;;;1.70;;
7745;SDS011;3917;42.748;23.278;2022-09-12T12:01:59;1.90;;;1.80;;
7745;SDS011;3917;42.748;23.278;2022-09-12T12:04:33;1.60;;;1.60;;
7745;SDS011;3917;42.748;23.278;2022-09-12T12:07:08;1.40;;;1.30;;
7745;SDS011;3917;42.748;23.278;2022-09-12T12:09:42;1.30;;;1.30;;
7745;SDS011;3917;42.748;23.278;2022-09-12T12:12:13;1.52;;;1.42;;
7745;SDS011;3917;42.748;23.278;2022-09-12T12:14:45;1.60;;;1.50;;
7745;SDS011;3917;42.748;23.278;2022-09-12T12:17:14;1.80;;;1.70;;
7745;SDS011;3917;42.748;23.278;2022-09-12T12:19:44;1.65;;;1.55;;
7745;SDS011;3917;42.748;23.278;2022-09-12T12:22:15;1.50;;;1.50;;
7745;SDS011;3917;42.748;23.278;2022-09-12T12:24:52;1.70;;;1.60;;
7745;SDS011;3917;42.748;23.278;2022-09-12T12:27:23;1.60;;;1.60;;
7745;SDS011;3917;42.748;23.278;2022-09-12T12:36:38;2.97;;;2.03;;
7745;SDS011;3917;42.748;23.278;2022-09-12T12:45:43;2.13;;;2.03;;
7745;SDS011;3917;42.748;23.278;2022-09-12T12:48:25;2.13;;;2.03;;
7745;SDS011;3917;42.748;23.278;2022-09-12T12:53:59;1.98;;;1.88;;
7745;SDS011;3917;42.748;23.278;2022-09-12T12:56:31;2.25;;;2.13;;
7745;SDS011;3917;42.748;23.278;2022-09-12T12:59:10;4.60;;;1.90;;
7745;SDS011;3917;42.748;23.278;2022-09-12T13:01:43;2.53;;;2.42;;
7745;SDS011;3917;42.748;23.278;2022-09-12T13:04:16;3.60;;;2.28;;
7745;SDS011;3917;42.748;23.278;2022-09-12T13:06:45;4.20;;;2.38;;
7745;SDS011;3917;42.748;23.278;2022-09-12T13:09:23;2.95;;;2.75;;
7745;SDS011;3917;42.748;23.278;2022-09-12T13:11:58;2.20;;;2.08;;
7745;SDS011;3917;42.748;23.278;2022-09-12T13:14:46;2.53;;;2.42;;
7745;SDS011;3917;42.748;23.278;2022-09-12T13:17:20;1.95;;;1.85;;
7745;SDS011;3917;42.748;23.278;2022-09-12T13:19:52;2.65;;;2.45;;
7745;SDS011;3917;42.748;23.278;2022-09-12T13:22:45;2.58;;;2.47;;
7745;SDS011;3917;42.748;23.278;2022-09-12T13:25:22;2.38;;;2.28;;
7745;SDS011;3917;42.748;23.278;2022-09-12T13:27:56;2.67;;;2.40;;
7745;SDS011;3917;42.748;23.278;2022-09-12T13:30:29;2.65;;;2.17;;
7745;SDS011;3917;42.748;23.278;2022-09-12T13:33:10;2.72;;;2.53;;
7745;SDS011;3917;42.748;23.278;2022-09-12T13:38:32;2.60;;;2.50;;
7745;SDS011;3917;42.748;23.278;2022-09-12T13:41:21;4.45;;;2.78;;
7745;SDS011;3917;42.748;23.278;2022-09-12T13:44:00;2.30;;;2.20;;
7745;SDS011;3917;42.748;23.278;2022-09-12T13:46:31;3.25;;;3.05;;
7745;SDS011;3917;42.748;23.278;2022-09-12T13:48:59;3.15;;;2.95;;
7745;SDS011;3917;42.748;23.278;2022-09-12T13:51:36;3.88;;;3.42;;
7745;SDS011;3917;42.748;23.278;2022-09-12T13:54:03;3.33;;;3.13;;
7745;SDS011;3917;42.748;23.278;2022-09-12T13:56:33;2.88;;;2.72;;
7745;SDS011;3917;42.748;23.278;2022-09-12T13:59:12;3.72;;;2.90;;
7745;SDS011;3917;42.748;23.278;2022-09-12T14:01:40;3.30;;;3.10;;
7745;SDS011;3917;42.748;23.278;2022-09-12T14:04:15;2.80;;;2.60;;
7745;SDS011;3917;42.748;23.278;2022-09-12T14:07:08;3.28;;;2.97;;
7745;SDS011;3917;42.748;23.278;2022-09-12T14:09:42;2.97;;;2.78;;
7745;SDS011;3917;42.748;23.278;2022-09-12T14:12:17;2.88;;;2.70;;
7745;SDS011;3917;42.748;23.278;2022-09-12T14:14:50;2.83;;;2.67;;
7745;SDS011;3917;42.748;23.278;2022-09-12T14:17:22;4.60;;;3.03;;
7745;SDS011;3917;42.748;23.278;2022-09-12T14:19:51;2.92;;;2.72;;
7745;SDS011;3917;42.748;23.278;2022-09-12T14:22:18;3.53;;;3.25;;
7745;SDS011;3917;42.748;23.278;2022-09-12T14:24:45;3.00;;;2.83;;
7745;SDS011;3917;42.748;23.278;2022-09-12T14:27:16;2.65;;;2.50;;
7745;SDS011;3917;42.748;23.278;2022-09-12T14:29:45;3.05;;;2.90;;
7745;SDS011;3917;42.748;23.278;2022-09-12T14:32:17;3.20;;;3.00;;
7745;SDS011;3917;42.748;23.278;2022-09-12T14:35:12;2.80;;;2.70;;
7745;SDS011;3917;42.748;23.278;2022-09-12T14:37:44;3.20;;;3.00;;
7745;SDS011;3917;42.748;23.278;2022-09-12T14:40:15;2.85;;;2.63;;
7745;SDS011;3917;42.748;23.278;2022-09-12T14:42:45;2.90;;;2.80;;
7745;SDS011;3917;42.748;23.278;2022-09-12T14:45:15;2.53;;;2.42;;
7745;SDS011;3917;42.748;23.278;2022-09-12T14:47:49;2.28;;;2.17;;
7745;SDS011;3917;42.748;23.278;2022-09-12T14:50:17;3.30;;;2.97;;
7745;SDS011;3917;42.748;23.278;2022-09-12T14:53:00;3.05;;;2.85;;
7745;SDS011;3917;42.748;23.278;2022-09-12T14:55:29;2.67;;;2.58;;
7745;SDS011;3917;42.748;23.278;2022-09-12T14:58:10;3.33;;;2.55;;
7745;SDS011;3917;42.748;23.278;2022-09-12T15:00:51;3.22;;;3.03;;
7745;SDS011;3917;42.748;23.278;2022-09-12T15:03:22;3.00;;;2.80;;
7745;SDS011;3917;42.748;23.278;2022-09-12T15:05:54;3.17;;;3.08;;
7745;SDS011;3917;42.748;23.278;2022-09-12T15:08:21;3.10;;;2.90;;
7745;SDS011;3917;42.748;23.278;2022-09-12T15:10:48;3.30;;;3.10;;
7745;SDS011;3917;42.748;23.278;2022-09-12T15:13:18;3.17;;;2.97;;
7745;SDS011;3917;42.748;23.278;2022-09-12T15:15:47;3.30;;;3.00;;
7745;SDS011;3917;42.748;23.278;2022-09-12T15:18:20;3.25;;;3.05;;
7745;SDS011;3917;42.748;23.278;2022-09-12T15:20:49;4.43;;;3.28;;
7745;SDS011;3917;42.748;23.278;2022-09-12T15:23:19;3.38;;;2.97;;
7745;SDS011;3917;42.748;23.278;2022-09-12T15:25:59;3.55;;;3.35;;
7745;SDS011;3917;42.748;23.278;2022-09-12T15:28:28;2.80;;;2.70;;
7745;SDS011;3917;42.748;23.278;2022-09-12T15:31:03;3.30;;;3.10;;
7745;SDS011;3917;42.748;23.278;2022-09-12T15:33:32;3.35;;;3.10;;
7745;SDS011;3917;42.748;23.278;2022-09-12T15:35:59;3.72;;;3.53;;
7745;SDS011;3917;42.748;23.278;2022-09-12T15:38:26;3.65;;;3.45;;
7745;SDS011;3917;42.748;23.278;2022-09-12T15:40:53;3.17;;;2.90;;
7745;SDS011;3917;42.748;23.278;2022-09-12T15:43:21;3.15;;;2.92;;
7745;SDS011;3917;42.748;23.278;2022-09-12T15:45:59;3.05;;;2.92;;
7745;SDS011;3917;42.748;23.278;2022-09-12T15:48:30;3.28;;;3.08;;
7745;SDS011;3917;42.748;23.278;2022-09-12T15:50:57;3.33;;;3.13;;
7745;SDS011;3917;42.748;23.278;2022-09-12T15:53:26;4.03;;;3.65;;
7745;SDS011;3917;42.748;23.278;2022-09-12T15:55:53;3.70;;;3.38;;